Time;durP1;ratioP1;P1;durP2;ratioP2;P2;SDS_P1;SDS_P2;PMS_P1;PMS_P2;Temp;Humidity;BMP_temperature;BMP_pressure;BME280_temperature;BME280_humidity;BME280_pressure;Samples;Min_cycle;Max_cycle;Signal;HPM_P1;HPM_P2
2024/04/09 00:07:16;;;;;;;5.22;2.15;;;8.80;99.90;;;;;;22414335;26;20469;-39
2024/04/09 00:17:25;;;;;;;4.10;2.15;;;8.80;99.90;;;;;;22409810;26;20080;-39
2024/04/09 00:27:27;;;;;;;5.55;2.35;;;8.70;99.90;;;;;;22413686;26;20541;-39
2024/04/09 00:37:28;;;;;;;4.68;1.90;;;8.70;99.90;;;;;;22411415;26;20032;-39
2024/04/09 00:47:34;;;;;;;4.60;1.95;;;8.60;99.90;;;;;;22414108;26;20422;-39
2024/04/09 00:57:39;;;;;;;3.42;1.42;;;8.70;99.90;;;;;;22413214;26;20028;-38
2024/04/09 01:07:42;;;;;;;2.88;1.38;;;8.50;99.90;;;;;;22405646;26;20036;-39
2024/04/09 01:17:43;;;;;;;3.53;1.20;;;8.40;99.90;;;;;;22411937;26;20098;-39
2024/04/09 01:27:46;;;;;;;3.30;1.02;;;8.30;99.90;;;;;;22409568;26;20032;-39
2024/04/09 01:37:48;;;;;;;3.75;1.00;;;8.30;99.90;;;;;;22403855;26;20074;-39
2024/04/09 01:47:50;;;;;;;2.20;0.90;;;8.20;99.90;;;;;;22410534;26;20027;-39
2024/04/09 01:57:52;;;;;;;2.20;1.40;;;8.30;99.90;;;;;;22409572;26;20516;-39
2024/04/09 02:07:55;;;;;;;1.77;1.00;;;8.20;99.90;;;;;;22408609;26;20037;-39
2024/04/09 02:17:57;;;;;;;2.50;1.40;;;8.10;99.90;;;;;;22407653;26;20043;-39
2024/04/09 02:27:58;;;;;;;3.60;1.30;;;8.10;99.90;;;;;;22408046;26;20031;-39
2024/04/09 02:38:00;;;;;;;3.05;1.73;;;8.40;99.90;;;;;;22405197;26;20079;-38
2024/04/09 02:48:02;;;;;;;3.83;2.00;;;8.40;99.90;;;;;;22406860;26;20453;-38
2024/04/09 02:58:04;;;;;;;4.88;2.10;;;8.30;99.90;;;;;;22406044;26;20031;-38
2024/04/09 03:08:06;;;;;;;4.60;2.45;;;8.20;99.90;;;;;;22401333;26;20500;-38
2024/04/09 03:18:08;;;;;;;5.97;2.92;;;7.90;99.90;;;;;;22404496;26;20093;-38
2024/04/09 03:28:13;;;;;;;4.72;2.88;;;7.90;99.90;;;;;;22404094;26;20078;-39
2024/04/09 03:38:15;;;;;;;5.32;3.22;;;7.80;99.90;;;;;;22410478;26;20384;-39
2024/04/09 03:48:17;;;;;;;6.97;3.28;;;7.90;99.90;;;;;;22418063;26;20031;-38
2024/04/09 03:58:22;;;;;;;6.65;3.78;;;7.70;99.90;;;;;;22416537;26;20027;-38
2024/04/09 04:08:30;;;;;;;5.18;3.63;;;7.80;99.90;;;;;;22415625;26;20027;-39
2024/04/09 04:18:35;;;;;;;4.60;3.42;;;7.60;99.90;;;;;;22414758;26;20074;-39
2024/04/09 04:28:42;;;;;;;4.47;2.80;;;7.50;99.90;;;;;;22414916;26;20053;-38
2024/04/09 04:38:46;;;;;;;4.15;2.58;;;7.50;99.90;;;;;;22412826;26;20374;-40
2024/04/09 04:48:47;;;;;;;7.00;2.60;;;7.80;99.90;;;;;;22413826;26;20027;-40
2024/04/09 04:58:49;;;;;;;5.57;2.15;;;7.90;99.90;;;;;;22409076;26;20031;-39
2024/04/09 05:08:51;;;;;;;4.22;1.30;;;7.90;99.90;;;;;;22412241;26;20035;-39
2024/04/09 05:18:53;;;;;;;4.43;1.70;;;8.10;99.90;;;;;;22412056;26;20437;-39
2024/04/09 05:28:55;;;;;;;5.13;1.52;;;8.20;99.90;;;;;;22406417;26;20036;-40
2024/04/09 05:39:00;;;;;;;3.55;1.63;;;8.70;99.90;;;;;;22407432;26;20039;-39
2024/04/09 05:49:03;;;;;;;5.57;1.42;;;9.30;99.90;;;;;;22407040;26;20436;-39
2024/04/09 05:59:05;;;;;;;2.15;1.70;;;10.20;99.90;;;;;;22405448;26;20031;-39
2024/04/09 06:09:08;;;;;;;5.60;2.03;;;10.90;99.90;;;;;;22406465;26;20462;-39
2024/04/09 06:19:11;;;;;;;4.95;2.10;;;11.50;99.90;;;;;;22396670;26;20022;-40
2024/04/09 06:29:12;;;;;;;4.15;1.80;;;12.10;99.90;;;;;;22399066;26;20027;-42
2024/04/09 06:39:14;;;;;;;4.00;1.20;;;13.00;99.90;;;;;;22403404;26;20035;-42
2024/04/09 06:49:16;;;;;;;2.10;1.20;;;14.00;99.90;;;;;;22406098;26;20368;-40
2024/04/09 06:59:18;;;;;;;2.78;1.00;;;14.20;99.90;;;;;;22403829;26;20039;-40
2024/04/09 07:09:20;;;;;;;2.90;0.80;;;14.20;99.90;;;;;;22384003;26;20004;-42
2024/04/09 07:19:22;;;;;;;2.90;1.00;;;14.60;99.90;;;;;;22355078;26;20000;-43
2024/04/09 07:29:25;;;;;;;2.92;0.93;;;16.00;99.80;;;;;;22388573;26;20000;-43
2024/04/09 07:39:27;;;;;;;2.35;0.90;;;17.00;97.80;;;;;;22385748;26;19999;-45
2024/04/09 07:49:29;;;;;;;2.67;1.05;;;17.40;96.40;;;;;;22394773;26;20130;-43
2024/04/09 07:59:31;;;;;;;5.22;1.10;;;17.70;97.70;;;;;;22395356;26;20391;-40
2024/04/09 08:09:32;;;;;;;2.45;1.10;;;18.20;98.80;;;;;;22397389;26;20035;-42
2024/04/09 08:19:34;;;;;;;4.95;1.40;;;18.00;99.20;;;;;;22399913;26;20043;-43
2024/04/09 08:29:37;;;;;;;3.08;1.50;;;18.00;99.50;;;;;;22409170;26;20027;-42
2024/04/09 08:39:39;;;;;;;5.68;1.50;;;18.00;99.80;;;;;;22407182;26;20094;-40
2024/04/09 08:49:41;;;;;;;6.35;1.63;;;17.90;99.90;;;;;;22408952;26;20036;-42
2024/04/09 08:59:42;;;;;;;3.40;1.50;;;18.50;99.90;;;;;;22404058;26;20102;-45
2024/04/09 09:09:46;;;;;;;3.03;1.60;;;19.00;96.80;;;;;;22405904;26;20035;-41
2024/04/09 09:20:01;;;;;;;5.60;1.88;;;19.10;98.00;;;;;;22403527;26;20835;-42
2024/04/09 09:30:04;;;;;;;4.53;1.73;;;19.50;97.50;;;;;;22407352;26;20035;-41
2024/04/09 09:40:11;;;;;;;3.45;2.00;;;19.90;99.00;;;;;;22401290;26;20076;-43
2024/04/09 09:50:16;;;;;;;6.28;2.08;;;20.10;97.60;;;;;;22403515;26;20027;-43
2024/04/09 10:00:19;;;;;;;5.82;2.55;;;20.20;99.90;;;;;;22402143;26;20024;-42
2024/04/09 10:10:30;;;;;;;6.43;2.40;;;20.70;98.00;;;;;;22395381;26;20032;-42
2024/04/09 10:20:37;;;;;;;5.72;2.90;;;20.70;98.60;;;;;;22404189;26;20547;-43
2024/04/09 10:30:45;;;;;;;4.05;2.72;;;20.90;99.90;;;;;;22397083;26;20435;-45
2024/04/09 10:40:49;;;;;;;6.53;3.30;;;21.40;98.20;;;;;;22402572;26;20591;-43
2024/04/09 10:50:51;;;;;;;9.07;4.00;;;21.70;97.30;;;;;;22403616;26;20039;-41
2024/04/09 11:00:54;;;;;;;5.80;3.50;;;21.30;96.90;;;;;;22404473;26;20098;-42
2024/04/09 11:10:58;;;;;;;16.88;10.35;;;20.70;97.00;;;;;;22399726;26;20036;-43
2024/04/09 11:21:00;;;;;;;22.02;13.65;;;20.90;99.90;;;;;;22400101;26;20085;-42
2024/04/09 11:31:04;;;;;;;21.02;15.10;;;21.30;99.90;;;;;;22400142;26;20031;-41
2024/04/09 11:41:06;;;;;;;14.55;9.93;;;21.50;99.90;;;;;;22399530;26;20098;-42
2024/04/09 11:51:08;;;;;;;16.13;12.27;;;21.20;99.30;;;;;;22397933;26;20070;-42
2024/04/09 12:01:09;;;;;;;16.52;10.98;;;20.40;99.90;;;;;;22408908;26;20033;-42
2024/04/09 12:11:11;;;;;;;14.68;11.70;;;19.90;99.90;;;;;;22403994;26;20098;-42
2024/04/09 12:21:13;;;;;;;18.65;13.98;;;19.10;99.90;;;;;;22411269;26;20031;-42
2024/04/09 12:31:15;;;;;;;19.52;14.43;;;18.40;99.90;;;;;;22405537;26;20031;-42
2024/04/09 12:41:17;;;;;;;17.35;11.82;;;17.60;99.90;;;;;;22405702;26;20027;-41
2024/04/09 12:51:19;;;;;;;14.65;11.63;;;18.00;99.90;;;;;;22408694;26;20101;-40
2024/04/09 13:01:21;;;;;;;12.18;9.45;;;18.60;99.90;;;;;;22406471;26;20197;-40
2024/04/09 13:11:24;;;;;;;11.75;8.68;;;19.50;99.90;;;;;;22404841;26;20027;-42
2024/04/09 13:21:25;;;;;;;10.80;7.38;;;19.50;99.90;;;;;;22401261;26;20040;-42
2024/04/09 13:31:27;;;;;;;8.85;5.05;;;19.90;99.90;;;;;;22407392;26;20032;-42
2024/04/09 13:41:29;;;;;;;15.75;9.57;;;20.00;99.90;;;;;;22397029;26;20011;-42
2024/04/09 13:51:31;;;;;;;15.15;12.20;;;19.10;99.90;;;;;;22400716;26;21033;-41
2024/04/09 14:01:33;;;;;;;19.30;14.13;;;17.70;99.90;;;;;;22402187;26;20075;-42
2024/04/09 14:11:34;;;;;;;15.27;11.38;;;17.20;99.90;;;;;;22401669;26;20035;-43
2024/04/09 14:21:36;;;;;;;13.07;11.43;;;17.10;99.90;;;;;;22403537;26;20094;-42
2024/04/09 14:31:38;;;;;;;19.92;12.05;;;17.00;99.90;;;;;;22405440;26;20478;-41
2024/04/09 14:41:40;;;;;;;17.73;12.65;;;16.70;99.90;;;;;;22401701;26;20051;-42
2024/04/09 14:51:43;;;;;;;16.13;11.05;;;16.20;99.90;;;;;;22403274;26;20027;-41
2024/04/09 15:01:44;;;;;;;15.32;13.40;;;16.00;99.90;;;;;;22393795;26;20040;-43
2024/04/09 15:11:46;;;;;;;21.33;15.95;;;15.20;99.90;;;;;;22394094;26;20054;-40
2024/04/09 15:21:48;;;;;;;19.75;15.75;;;14.50;99.90;;;;;;22398390;26;20040;-39
2024/04/09 15:31:50;;;;;;;23.30;17.38;;;13.90;99.90;;;;;;22399908;26;20029;-39
2024/04/09 15:41:52;;;;;;;23.55;17.42;;;13.60;99.90;;;;;;22385182;26;20067;-40
2024/04/09 15:51:53;;;;;;;22.95;15.75;;;13.30;99.90;;;;;;22365542;26;20035;-41
2024/04/09 16:01:55;;;;;;;23.90;17.88;;;13.10;99.90;;;;;;22389877;26;20102;-40
2024/04/09 16:11:57;;;;;;;22.00;15.30;;;13.10;99.90;;;;;;22399414;26;20043;-39
2024/04/09 16:21:58;;;;;;;22.02;14.93;;;12.90;99.90;;;;;;22400237;26;20027;-41
2024/04/09 16:32:00;;;;;;;20.88;15.48;;;13.20;99.90;;;;;;22394046;26;20075;-42
2024/04/09 16:42:03;;;;;;;19.05;13.80;;;13.50;99.90;;;;;;22400141;26;20126;-42
2024/04/09 16:52:07;;;;;;;18.83;14.93;;;13.50;99.90;;;;;;22412371;26;20032;-39
2024/04/09 17:02:09;;;;;;;18.60;14.13;;;13.30;99.90;;;;;;22413402;26;20496;-40
2024/04/09 17:12:11;;;;;;;20.83;14.93;;;12.90;99.90;;;;;;22409942;26;20035;-41
2024/04/09 17:22:13;;;;;;;23.70;17.88;;;12.50;99.90;;;;;;22411216;26;20039;-41
2024/04/09 17:32:14;;;;;;;26.85;20.38;;;12.30;99.90;;;;;;22411970;26;20089;-42
2024/04/09 17:42:17;;;;;;;32.45;24.52;;;12.20;99.90;;;;;;22409389;26;20031;-40
2024/04/09 17:52:19;;;;;;;27.00;19.48;;;11.90;99.90;;;;;;22409781;26;20027;-40
2024/04/09 18:02:21;;;;;;;17.60;11.30;;;11.60;99.90;;;;;;22410382;26;20027;-39
2024/04/09 18:12:23;;;;;;;10.35;6.57;;;11.40;99.90;;;;;;22409265;26;20587;-40
2024/04/09 18:22:24;;;;;;;9.98;5.53;;;10.90;99.90;;;;;;22406957;26;20090;-40
2024/04/09 18:32:26;;;;;;;6.53;3.63;;;10.60;99.90;;;;;;22408322;26;20370;-39
2024/04/09 18:42:31;;;;;;;5.63;3.60;;;10.50;99.90;;;;;;22407787;26;20035;-40
2024/04/09 18:52:35;;;;;;;11.60;7.25;;;11.00;99.90;;;;;;22406956;26;20027;-39
2024/04/09 19:02:37;;;;;;;25.75;16.02;;;10.30;99.90;;;;;;22402388;26;20090;-40
2024/04/09 19:12:39;;;;;;;33.58;23.77;;;10.50;99.90;;;;;;22405588;26;20090;-39
2024/04/09 19:22:41;;;;;;;33.90;24.80;;;10.80;99.90;;;;;;22404862;26;20032;-40
2024/04/09 19:32:43;;;;;;;33.75;24.27;;;11.00;99.90;;;;;;22399760;26;20118;-39
2024/04/09 19:42:45;;;;;;;6.82;4.45;;;10.90;99.90;;;;;;22395877;26;20094;-40
2024/04/09 19:52:47;;;;;;;5.45;3.53;;;10.80;99.90;;;;;;22397196;26;20075;-41
2024/04/09 20:02:48;;;;;;;13.45;7.35;;;9.40;99.90;;;;;;22401055;26;20067;-43
2024/04/09 20:12:50;;;;;;;17.60;8.95;;;8.50;99.90;;;;;;22405769;26;19999;-40
2024/04/09 20:22:53;;;;;;;15.20;8.63;;;8.20;99.90;;;;;;22415426;26;20489;-41
2024/04/09 20:32:54;;;;;;;18.35;9.98;;;8.10;99.90;;;;;;22409398;26;20040;-42
2024/04/09 20:43:04;;;;;;;18.00;10.35;;;8.00;99.90;;;;;;22411834;26;20039;-39
2024/04/09 20:53:06;;;;;;;14.75;8.80;;;7.70;99.90;;;;;;22384552;26;20027;-45
2024/04/09 21:03:08;;;;;;;14.98;9.23;;;8.10;99.90;;;;;;22413694;26;20432;-42
2024/04/09 21:13:10;;;;;;;22.40;12.57;;;8.10;99.90;;;;;;22370243;26;20105;-39
2024/04/09 21:23:12;;;;;;;18.08;11.57;;;8.10;99.90;;;;;;22339769;26;19999;-39
2024/04/09 21:33:15;;;;;;;16.83;9.70;;;8.10;99.90;;;;;;22399913;26;20036;-40
2024/04/09 21:43:17;;;;;;;12.23;7.15;;;8.10;99.90;;;;;;22369986;26;20072;-39
2024/04/09 21:53:19;;;;;;;11.18;5.55;;;8.10;99.90;;;;;;22410438;26;20043;-42
2024/04/09 22:03:22;;;;;;;11.57;5.63;;;8.00;99.90;;;;;;22405188;26;20072;-42
2024/04/09 22:13:23;;;;;;;11.23;6.30;;;8.10;99.90;;;;;;22409199;26;20444;-39
2024/04/09 22:23:25;;;;;;;11.45;6.28;;;8.00;99.90;;;;;;22407034;26;20028;-42
2024/04/09 22:33:27;;;;;;;11.35;5.47;;;8.00;99.90;;;;;;22407116;26;20071;-39
2024/04/09 22:43:29;;;;;;;15.23;6.97;;;8.00;99.90;;;;;;22403405;26;20094;-43
2024/04/09 22:53:37;;;;;;;18.38;10.57;;;8.00;99.90;;;;;;22407023;26;20003;-41
2024/04/09 23:03:39;;;;;;;17.13;11.15;;;8.00;99.90;;;;;;22398449;26;20032;-40
2024/04/09 23:13:41;;;;;;;18.92;12.00;;;7.90;99.90;;;;;;22405400;26;20028;-41
2024/04/09 23:23:43;;;;;;;20.98;10.80;;;8.00;99.90;;;;;;22400618;26;20054;-41
2024/04/09 23:33:48;;;;;;;16.35;10.30;;;8.00;99.90;;;;;;22396172;26;20032;-39
2024/04/09 23:43:50;;;;;;;16.50;9.20;;;8.00;99.90;;;;;;22400274;26;20027;-39
2024/04/09 23:53:51;;;;;;;16.75;8.68;;;8.00;99.90;;;;;;22415135;26;20028;-40
